sensor_id;sensor_type;location;lat;lon;timestamp;P1;durP1;ratioP1;P2;durP2;ratioP2
1839;SDS011;920;48.944;9.148;2024-03-02T00:00:38;15.53;;;11.90;;
1839;SDS011;920;48.944;9.148;2024-03-02T00:03:05;16.50;;;11.80;;
1839;SDS011;920;48.944;9.148;2024-03-02T00:05:36;13.80;;;11.17;;
1839;SDS011;920;48.944;9.148;2024-03-02T00:08:03;12.43;;;10.50;;
1839;SDS011;920;48.944;9.148;2024-03-02T00:10:33;13.87;;;10.50;;
1839;SDS011;920;48.944;9.148;2024-03-02T00:13:04;14.10;;;11.10;;
1839;SDS011;920;48.944;9.148;2024-03-02T00:15:40;17.97;;;12.50;;
1839;SDS011;920;48.944;9.148;2024-03-02T00:18:10;14.27;;;11.10;;
1839;SDS011;920;48.944;9.148;2024-03-02T00:20:39;12.60;;;10.20;;
1839;SDS011;920;48.944;9.148;2024-03-02T00:23:06;12.13;;;9.70;;
1839;SDS011;920;48.944;9.148;2024-03-02T00:25:38;11.83;;;9.97;;
1839;SDS011;920;48.944;9.148;2024-03-02T00:28:10;12.07;;;9.17;;
1839;SDS011;920;48.944;9.148;2024-03-02T00:33:26;13.27;;;9.53;;
1839;SDS011;920;48.944;9.148;2024-03-02T00:35:55;12.90;;;9.77;;
1839;SDS011;920;48.944;9.148;2024-03-02T00:38:23;12.47;;;10.20;;
1839;SDS011;920;48.944;9.148;2024-03-02T00:40:50;11.87;;;9.97;;
1839;SDS011;920;48.944;9.148;2024-03-02T00:43:30;12.20;;;10.40;;
1839;SDS011;920;48.944;9.148;2024-03-02T00:46:17;11.30;;;9.50;;
1839;SDS011;920;48.944;9.148;2024-03-02T00:48:47;12.73;;;10.53;;
1839;SDS011;920;48.944;9.148;2024-03-02T00:51:18;13.67;;;10.10;;
1839;SDS011;920;48.944;9.148;2024-03-02T00:53:45;14.67;;;10.23;;
1839;SDS011;920;48.944;9.148;2024-03-02T00:56:12;13.90;;;10.70;;
1839;SDS011;920;48.944;9.148;2024-03-02T00:58:39;13.33;;;11.40;;
1839;SDS011;920;48.944;9.148;2024-03-02T01:01:05;14.53;;;11.03;;
1839;SDS011;920;48.944;9.148;2024-03-02T01:03:33;11.90;;;10.00;;
1839;SDS011;920;48.944;9.148;2024-03-02T01:06:00;11.67;;;10.20;;
1839;SDS011;920;48.944;9.148;2024-03-02T01:08:28;11.47;;;9.77;;
1839;SDS011;920;48.944;9.148;2024-03-02T01:10:55;13.10;;;10.97;;
1839;SDS011;920;48.944;9.148;2024-03-02T01:13:22;11.60;;;10.33;;
1839;SDS011;920;48.944;9.148;2024-03-02T01:15:49;13.13;;;10.07;;
1839;SDS011;920;48.944;9.148;2024-03-02T01:18:16;15.10;;;10.33;;
1839;SDS011;920;48.944;9.148;2024-03-02T01:20:43;12.60;;;10.00;;
1839;SDS011;920;48.944;9.148;2024-03-02T01:23:09;12.20;;;10.17;;
1839;SDS011;920;48.944;9.148;2024-03-02T01:25:37;12.20;;;9.90;;
1839;SDS011;920;48.944;9.148;2024-03-02T01:28:05;11.50;;;9.53;;
1839;SDS011;920;48.944;9.148;2024-03-02T01:30:31;12.90;;;10.20;;
1839;SDS011;920;48.944;9.148;2024-03-02T01:32:58;11.23;;;10.03;;
1839;SDS011;920;48.944;9.148;2024-03-02T01:35:26;12.03;;;10.23;;
1839;SDS011;920;48.944;9.148;2024-03-02T01:37:53;14.50;;;11.00;;
1839;SDS011;920;48.944;9.148;2024-03-02T01:40:20;12.80;;;10.60;;
1839;SDS011;920;48.944;9.148;2024-03-02T01:42:48;16.90;;;10.50;;
1839;SDS011;920;48.944;9.148;2024-03-02T01:45:15;11.83;;;10.43;;
1839;SDS011;920;48.944;9.148;2024-03-02T01:47:42;12.70;;;10.20;;
1839;SDS011;920;48.944;9.148;2024-03-02T01:50:08;15.80;;;11.40;;
1839;SDS011;920;48.944;9.148;2024-03-02T01:52:37;12.53;;;10.27;;
1839;SDS011;920;48.944;9.148;2024-03-02T01:55:07;13.90;;;10.70;;
1839;SDS011;920;48.944;9.148;2024-03-02T01:57:37;15.60;;;10.80;;
1839;SDS011;920;48.944;9.148;2024-03-02T02:00:06;11.80;;;9.97;;
1839;SDS011;920;48.944;9.148;2024-03-02T02:02:38;12.30;;;10.30;;
1839;SDS011;920;48.944;9.148;2024-03-02T02:05:04;12.40;;;10.17;;
1839;SDS011;920;48.944;9.148;2024-03-02T02:07:31;11.40;;;9.30;;
1839;SDS011;920;48.944;9.148;2024-03-02T02:10:00;10.80;;;9.50;;
1839;SDS011;920;48.944;9.148;2024-03-02T02:12:27;13.40;;;10.70;;
1839;SDS011;920;48.944;9.148;2024-03-02T02:14:54;13.00;;;10.50;;
1839;SDS011;920;48.944;9.148;2024-03-02T02:17:22;11.87;;;9.30;;
1839;SDS011;920;48.944;9.148;2024-03-02T02:19:49;13.03;;;9.87;;
1839;SDS011;920;48.944;9.148;2024-03-02T02:22:17;12.80;;;9.83;;
1839;SDS011;920;48.944;9.148;2024-03-02T02:24:44;14.60;;;9.70;;
1839;SDS011;920;48.944;9.148;2024-03-02T02:27:10;13.60;;;9.50;;
1839;SDS011;920;48.944;9.148;2024-03-02T02:29:39;12.03;;;9.67;;
1839;SDS011;920;48.944;9.148;2024-03-02T02:32:06;10.90;;;9.00;;
1839;SDS011;920;48.944;9.148;2024-03-02T02:34:33;12.33;;;9.60;;
1839;SDS011;920;48.944;9.148;2024-03-02T02:37:00;10.37;;;8.97;;
1839;SDS011;920;48.944;9.148;2024-03-02T02:39:28;11.13;;;9.40;;
1839;SDS011;920;48.944;9.148;2024-03-02T02:41:54;12.57;;;9.73;;
1839;SDS011;920;48.944;9.148;2024-03-02T02:44:21;11.93;;;9.20;;
1839;SDS011;920;48.944;9.148;2024-03-02T02:46:48;13.80;;;10.17;;
1839;SDS011;920;48.944;9.148;2024-03-02T02:49:15;12.10;;;10.03;;
1839;SDS011;920;48.944;9.148;2024-03-02T02:51:42;11.87;;;9.47;;
1839;SDS011;920;48.944;9.148;2024-03-02T02:54:09;12.80;;;10.00;;
1839;SDS011;920;48.944;9.148;2024-03-02T02:56:37;12.53;;;10.60;;
1839;SDS011;920;48.944;9.148;2024-03-02T02:59:03;12.80;;;10.30;;
1839;SDS011;920;48.944;9.148;2024-03-02T03:01:30;11.90;;;10.37;;
1839;SDS011;920;48.944;9.148;2024-03-02T03:03:57;12.60;;;9.70;;
1839;SDS011;920;48.944;9.148;2024-03-02T03:06:23;13.73;;;10.67;;
1839;SDS011;920;48.944;9.148;2024-03-02T03:08:50;12.00;;;10.00;;
1839;SDS011;920;48.944;9.148;2024-03-02T03:11:17;11.53;;;9.63;;
1839;SDS011;920;48.944;9.148;2024-03-02T03:13:45;13.57;;;10.47;;
1839;SDS011;920;48.944;9.148;2024-03-02T03:16:13;12.57;;;10.13;;
1839;SDS011;920;48.944;9.148;2024-03-02T03:18:40;13.37;;;9.87;;
1839;SDS011;920;48.944;9.148;2024-03-02T03:21:06;12.33;;;9.73;;
1839;SDS011;920;48.944;9.148;2024-03-02T03:23:33;14.93;;;10.47;;
1839;SDS011;920;48.944;9.148;2024-03-02T03:26:00;13.50;;;10.60;;
1839;SDS011;920;48.944;9.148;2024-03-02T03:28:27;12.87;;;10.60;;
1839;SDS011;920;48.944;9.148;2024-03-02T03:30:55;13.70;;;10.10;;
1839;SDS011;920;48.944;9.148;2024-03-02T03:33:21;12.60;;;9.93;;
1839;SDS011;920;48.944;9.148;2024-03-02T03:35:48;14.23;;;10.83;;
1839;SDS011;920;48.944;9.148;2024-03-02T03:38:15;13.43;;;10.97;;
1839;SDS011;920;48.944;9.148;2024-03-02T03:40:41;13.13;;;10.20;;
1839;SDS011;920;48.944;9.148;2024-03-02T03:43:09;14.00;;;10.90;;
1839;SDS011;920;48.944;9.148;2024-03-02T03:45:35;13.07;;;10.57;;
1839;SDS011;920;48.944;9.148;2024-03-02T03:48:04;13.30;;;10.90;;
1839;SDS011;920;48.944;9.148;2024-03-02T03:50:31;13.37;;;10.57;;
1839;SDS011;920;48.944;9.148;2024-03-02T03:52:57;13.50;;;10.63;;
1839;SDS011;920;48.944;9.148;2024-03-02T03:55:24;14.30;;;10.87;;
1839;SDS011;920;48.944;9.148;2024-03-02T03:57:51;13.27;;;10.63;;
1839;SDS011;920;48.944;9.148;2024-03-02T04:00:18;12.63;;;10.83;;
1839;SDS011;920;48.944;9.148;2024-03-02T04:02:45;12.50;;;10.37;;
1839;SDS011;920;48.944;9.148;2024-03-02T04:05:13;14.37;;;10.90;;
1839;SDS011;920;48.944;9.148;2024-03-02T04:07:39;13.77;;;9.90;;
1839;SDS011;920;48.944;9.148;2024-03-02T04:10:08;14.83;;;10.60;;
1839;SDS011;920;48.944;9.148;2024-03-02T04:12:36;11.30;;;10.03;;
1839;SDS011;920;48.944;9.148;2024-03-02T04:15:03;13.20;;;10.27;;
1839;SDS011;920;48.944;9.148;2024-03-02T04:17:32;13.07;;;10.63;;
1839;SDS011;920;48.944;9.148;2024-03-02T04:19:59;12.80;;;10.10;;
1839;SDS011;920;48.944;9.148;2024-03-02T04:22:27;13.40;;;10.53;;
1839;SDS011;920;48.944;9.148;2024-03-02T04:24:54;12.63;;;10.03;;
1839;SDS011;920;48.944;9.148;2024-03-02T04:27:20;13.80;;;10.17;;
1839;SDS011;920;48.944;9.148;2024-03-02T04:29:47;12.43;;;9.80;;
1839;SDS011;920;48.944;9.148;2024-03-02T04:32:14;14.60;;;10.37;;
1839;SDS011;920;48.944;9.148;2024-03-02T04:34:40;12.70;;;11.13;;
1839;SDS011;920;48.944;9.148;2024-03-02T04:37:07;13.03;;;10.50;;
1839;SDS011;920;48.944;9.148;2024-03-02T04:39:36;13.47;;;10.80;;
1839;SDS011;920;48.944;9.148;2024-03-02T04:42:02;14.13;;;10.77;;
1839;SDS011;920;48.944;9.148;2024-03-02T04:44:29;12.47;;;9.80;;
1839;SDS011;920;48.944;9.148;2024-03-02T04:46:56;11.37;;;9.67;;
1839;SDS011;920;48.944;9.148;2024-03-02T04:49:23;13.10;;;9.50;;
1839;SDS011;920;48.944;9.148;2024-03-02T04:51:49;13.90;;;10.23;;
1839;SDS011;920;48.944;9.148;2024-03-02T04:54:16;14.17;;;10.60;;
1839;SDS011;920;48.944;9.148;2024-03-02T04:56:44;15.13;;;10.60;;
1839;SDS011;920;48.944;9.148;2024-03-02T04:59:14;13.90;;;10.40;;
1839;SDS011;920;48.944;9.148;2024-03-02T05:01:42;13.87;;;9.60;;
1839;SDS011;920;48.944;9.148;2024-03-02T05:04:09;11.50;;;9.80;;
1839;SDS011;920;48.944;9.148;2024-03-02T05:06:36;14.23;;;11.17;;
1839;SDS011;920;48.944;9.148;2024-03-02T05:09:04;14.43;;;10.57;;
1839;SDS011;920;48.944;9.148;2024-03-02T05:11:31;15.33;;;10.60;;
1839;SDS011;920;48.944;9.148;2024-03-02T05:14:17;15.07;;;11.23;;
1839;SDS011;920;48.944;9.148;2024-03-02T05:16:43;12.93;;;10.00;;
1839;SDS011;920;48.944;9.148;2024-03-02T05:19:10;13.77;;;10.83;;
1839;SDS011;920;48.944;9.148;2024-03-02T05:21:37;13.47;;;10.57;;
1839;SDS011;920;48.944;9.148;2024-03-02T05:24:04;13.80;;;9.97;;
1839;SDS011;920;48.944;9.148;2024-03-02T05:26:31;13.13;;;9.73;;
1839;SDS011;920;48.944;9.148;2024-03-02T05:28:57;14.60;;;9.93;;
1839;SDS011;920;48.944;9.148;2024-03-02T05:31:25;15.50;;;11.00;;
1839;SDS011;920;48.944;9.148;2024-03-02T05:33:52;14.13;;;10.87;;
1839;SDS011;920;48.944;9.148;2024-03-02T05:36:19;14.20;;;10.90;;
1839;SDS011;920;48.944;9.148;2024-03-02T05:38:46;13.67;;;11.17;;
1839;SDS011;920;48.944;9.148;2024-03-02T05:41:13;12.73;;;9.90;;
1839;SDS011;920;48.944;9.148;2024-03-02T05:43:39;14.40;;;10.93;;
1839;SDS011;920;48.944;9.148;2024-03-02T05:46:06;12.53;;;10.30;;
1839;SDS011;920;48.944;9.148;2024-03-02T05:48:34;13.33;;;10.67;;
1839;SDS011;920;48.944;9.148;2024-03-02T05:51:01;14.53;;;11.30;;
1839;SDS011;920;48.944;9.148;2024-03-02T05:53:28;12.00;;;9.90;;
1839;SDS011;920;48.944;9.148;2024-03-02T05:55:54;16.30;;;11.43;;
1839;SDS011;920;48.944;9.148;2024-03-02T05:58:21;14.10;;;11.50;;
1839;SDS011;920;48.944;9.148;2024-03-02T06:01:08;12.63;;;10.40;;
1839;SDS011;920;48.944;9.148;2024-03-02T06:03:36;13.33;;;10.20;;
1839;SDS011;920;48.944;9.148;2024-03-02T06:06:03;16.10;;;10.93;;
1839;SDS011;920;48.944;9.148;2024-03-02T06:08:30;15.00;;;10.53;;
1839;SDS011;920;48.944;9.148;2024-03-02T06:10:57;15.33;;;11.37;;
1839;SDS011;920;48.944;9.148;2024-03-02T06:13:24;14.67;;;10.77;;
1839;SDS011;920;48.944;9.148;2024-03-02T06:15:51;15.70;;;11.40;;
1839;SDS011;920;48.944;9.148;2024-03-02T06:18:18;14.37;;;10.80;;
1839;SDS011;920;48.944;9.148;2024-03-02T06:20:46;16.37;;;11.27;;
1839;SDS011;920;48.944;9.148;2024-03-02T06:23:14;13.93;;;10.73;;
1839;SDS011;920;48.944;9.148;2024-03-02T06:25:41;17.57;;;11.13;;
1839;SDS011;920;48.944;9.148;2024-03-02T06:28:07;15.37;;;11.10;;
1839;SDS011;920;48.944;9.148;2024-03-02T06:30:34;14.00;;;10.50;;
1839;SDS011;920;48.944;9.148;2024-03-02T06:33:01;16.67;;;11.80;;
1839;SDS011;920;48.944;9.148;2024-03-02T06:35:29;13.50;;;9.93;;
1839;SDS011;920;48.944;9.148;2024-03-02T06:37:57;13.43;;;10.43;;
1839;SDS011;920;48.944;9.148;2024-03-02T06:40:23;12.47;;;9.87;;
1839;SDS011;920;48.944;9.148;2024-03-02T06:42:50;12.93;;;10.00;;
1839;SDS011;920;48.944;9.148;2024-03-02T06:45:17;13.50;;;10.47;;
1839;SDS011;920;48.944;9.148;2024-03-02T06:47:43;13.93;;;10.37;;
1839;SDS011;920;48.944;9.148;2024-03-02T06:50:10;15.57;;;10.40;;
1839;SDS011;920;48.944;9.148;2024-03-02T06:52:37;14.00;;;10.97;;
1839;SDS011;920;48.944;9.148;2024-03-02T06:55:06;15.40;;;11.17;;
1839;SDS011;920;48.944;9.148;2024-03-02T06:57:33;12.63;;;9.93;;
1839;SDS011;920;48.944;9.148;2024-03-02T06:59:59;16.30;;;11.17;;
1839;SDS011;920;48.944;9.148;2024-03-02T07:02:27;14.70;;;10.37;;
1839;SDS011;920;48.944;9.148;2024-03-02T07:04:53;13.23;;;10.07;;
1839;SDS011;920;48.944;9.148;2024-03-02T07:07:20;14.33;;;10.90;;
1839;SDS011;920;48.944;9.148;2024-03-02T07:09:47;13.00;;;10.10;;
1839;SDS011;920;48.944;9.148;2024-03-02T07:12:16;11.70;;;9.63;;
1839;SDS011;920;48.944;9.148;2024-03-02T07:14:43;14.30;;;10.07;;
1839;SDS011;920;48.944;9.148;2024-03-02T07:17:27;13.80;;;10.63;;
1839;SDS011;920;48.944;9.148;2024-03-02T07:19:54;13.50;;;10.60;;
1839;SDS011;920;48.944;9.148;2024-03-02T07:22:21;15.87;;;11.00;;
1839;SDS011;920;48.944;9.148;2024-03-02T07:24:48;14.37;;;10.73;;
1839;SDS011;920;48.944;9.148;2024-03-02T07:27:16;12.40;;;9.83;;
1839;SDS011;920;48.944;9.148;2024-03-02T07:29:44;13.37;;;10.63;;
1839;SDS011;920;48.944;9.148;2024-03-02T07:32:11;13.83;;;10.67;;
1839;SDS011;920;48.944;9.148;2024-03-02T07:34:38;13.77;;;10.60;;
1839;SDS011;920;48.944;9.148;2024-03-02T07:37:05;13.27;;;10.50;;
1839;SDS011;920;48.944;9.148;2024-03-02T07:39:32;12.93;;;9.80;;
1839;SDS011;920;48.944;9.148;2024-03-02T07:41:59;13.70;;;10.57;;
1839;SDS011;920;48.944;9.148;2024-03-02T07:44:30;15.73;;;11.07;;
1839;SDS011;920;48.944;9.148;2024-03-02T07:46:59;13.37;;;10.63;;
1839;SDS011;920;48.944;9.148;2024-03-02T07:49:26;13.03;;;10.20;;
1839;SDS011;920;48.944;9.148;2024-03-02T07:51:53;13.00;;;10.10;;
1839;SDS011;920;48.944;9.148;2024-03-02T07:54:20;14.70;;;10.90;;
1839;SDS011;920;48.944;9.148;2024-03-02T07:56:47;15.37;;;11.73;;
1839;SDS011;920;48.944;9.148;2024-03-02T07:59:14;14.37;;;11.07;;
1839;SDS011;920;48.944;9.148;2024-03-02T08:01:42;12.97;;;10.47;;
1839;SDS011;920;48.944;9.148;2024-03-02T08:04:08;13.87;;;11.20;;
1839;SDS011;920;48.944;9.148;2024-03-02T08:06:35;12.37;;;10.20;;
1839;SDS011;920;48.944;9.148;2024-03-02T08:09:02;14.20;;;11.40;;
1839;SDS011;920;48.944;9.148;2024-03-02T08:11:34;11.73;;;9.97;;
1839;SDS011;920;48.944;9.148;2024-03-02T08:14:01;13.03;;;9.90;;
1839;SDS011;920;48.944;9.148;2024-03-02T08:16:28;11.77;;;9.70;;
1839;SDS011;920;48.944;9.148;2024-03-02T08:18:56;11.50;;;9.50;;
1839;SDS011;920;48.944;9.148;2024-03-02T08:21:24;13.47;;;10.63;;
1839;SDS011;920;48.944;9.148;2024-03-02T08:23:50;13.27;;;9.60;;
1839;SDS011;920;48.944;9.148;2024-03-02T08:26:17;12.50;;;10.00;;
1839;SDS011;920;48.944;9.148;2024-03-02T08:28:44;12.67;;;10.27;;
1839;SDS011;920;48.944;9.148;2024-03-02T08:31:11;11.67;;;9.77;;
1839;SDS011;920;48.944;9.148;2024-03-02T08:33:37;11.80;;;9.33;;
1839;SDS011;920;48.944;9.148;2024-03-02T08:36:05;10.40;;;9.13;;
1839;SDS011;920;48.944;9.148;2024-03-02T08:38:32;12.30;;;9.40;;
1839;SDS011;920;48.944;9.148;2024-03-02T08:40:58;10.37;;;8.60;;
1839;SDS011;920;48.944;9.148;2024-03-02T08:43:25;11.13;;;8.37;;
1839;SDS011;920;48.944;9.148;2024-03-02T08:45:52;10.63;;;8.50;;
1839;SDS011;920;48.944;9.148;2024-03-02T08:48:18;11.47;;;9.07;;
1839;SDS011;920;48.944;9.148;2024-03-02T08:50:46;11.80;;;9.57;;
1839;SDS011;920;48.944;9.148;2024-03-02T08:53:14;11.13;;;9.10;;
1839;SDS011;920;48.944;9.148;2024-03-02T08:55:43;11.30;;;8.90;;
1839;SDS011;920;48.944;9.148;2024-03-02T08:58:10;10.77;;;9.03;;
1839;SDS011;920;48.944;9.148;2024-03-02T09:00:37;9.20;;;7.53;;
1839;SDS011;920;48.944;9.148;2024-03-02T09:03:04;10.50;;;8.60;;
1839;SDS011;920;48.944;9.148;2024-03-02T09:05:31;10.37;;;8.70;;
1839;SDS011;920;48.944;9.148;2024-03-02T09:07:57;10.37;;;7.90;;
1839;SDS011;920;48.944;9.148;2024-03-02T09:10:26;10.70;;;8.70;;
1839;SDS011;920;48.944;9.148;2024-03-02T09:12:52;11.37;;;7.87;;
1839;SDS011;920;48.944;9.148;2024-03-02T09:15:19;9.17;;;7.30;;
1839;SDS011;920;48.944;9.148;2024-03-02T09:17:46;10.40;;;7.60;;
1839;SDS011;920;48.944;9.148;2024-03-02T09:20:13;9.13;;;6.87;;
1839;SDS011;920;48.944;9.148;2024-03-02T09:22:40;8.60;;;6.80;;
1839;SDS011;920;48.944;9.148;2024-03-02T09:25:07;7.53;;;6.57;;
1839;SDS011;920;48.944;9.148;2024-03-02T09:27:37;9.80;;;7.30;;
1839;SDS011;920;48.944;9.148;2024-03-02T09:30:04;7.60;;;6.03;;
1839;SDS011;920;48.944;9.148;2024-03-02T09:32:31;7.00;;;6.30;;
1839;SDS011;920;48.944;9.148;2024-03-02T09:34:58;8.40;;;6.00;;
1839;SDS011;920;48.944;9.148;2024-03-02T09:37:25;5.83;;;4.93;;
1839;SDS011;920;48.944;9.148;2024-03-02T09:39:54;7.20;;;5.80;;
1839;SDS011;920;48.944;9.148;2024-03-02T09:42:20;6.73;;;5.30;;
1839;SDS011;920;48.944;9.148;2024-03-02T09:44:48;9.70;;;4.77;;
1839;SDS011;920;48.944;9.148;2024-03-02T09:47:15;6.97;;;4.87;;
1839;SDS011;920;48.944;9.148;2024-03-02T09:49:42;6.03;;;4.73;;
1839;SDS011;920;48.944;9.148;2024-03-02T09:52:09;5.80;;;4.00;;
1839;SDS011;920;48.944;9.148;2024-03-02T09:54:36;5.10;;;4.53;;
1839;SDS011;920;48.944;9.148;2024-03-02T09:57:03;6.87;;;4.50;;
1839;SDS011;920;48.944;9.148;2024-03-02T09:59:30;5.13;;;4.47;;
1839;SDS011;920;48.944;9.148;2024-03-02T10:01:59;4.90;;;4.40;;
1839;SDS011;920;48.944;9.148;2024-03-02T10:04:27;5.90;;;4.87;;
1839;SDS011;920;48.944;9.148;2024-03-02T10:07:10;5.93;;;5.07;;
1839;SDS011;920;48.944;9.148;2024-03-02T10:09:38;6.93;;;4.67;;
1839;SDS011;920;48.944;9.148;2024-03-02T10:12:04;5.43;;;4.50;;
1839;SDS011;920;48.944;9.148;2024-03-02T10:14:31;5.13;;;4.53;;
1839;SDS011;920;48.944;9.148;2024-03-02T10:17:02;7.23;;;5.63;;
1839;SDS011;920;48.944;9.148;2024-03-02T10:19:30;5.50;;;4.90;;
1839;SDS011;920;48.944;9.148;2024-03-02T10:21:58;6.10;;;4.47;;
1839;SDS011;920;48.944;9.148;2024-03-02T10:24:25;4.83;;;3.87;;
1839;SDS011;920;48.944;9.148;2024-03-02T10:26:52;5.83;;;4.67;;
1839;SDS011;920;48.944;9.148;2024-03-02T10:29:19;5.00;;;4.40;;
1839;SDS011;920;48.944;9.148;2024-03-02T10:31:46;5.70;;;4.27;;
1839;SDS011;920;48.944;9.148;2024-03-02T10:34:14;4.50;;;3.90;;
1839;SDS011;920;48.944;9.148;2024-03-02T10:36:42;5.63;;;4.60;;
1839;SDS011;920;48.944;9.148;2024-03-02T10:39:11;5.80;;;3.93;;
1839;SDS011;920;48.944;9.148;2024-03-02T10:41:39;5.20;;;3.87;;
1839;SDS011;920;48.944;9.148;2024-03-02T10:44:06;5.17;;;4.07;;
1839;SDS011;920;48.944;9.148;2024-03-02T10:46:34;4.77;;;3.70;;
1839;SDS011;920;48.944;9.148;2024-03-02T10:49:02;5.00;;;3.97;;
1839;SDS011;920;48.944;9.148;2024-03-02T10:51:32;4.83;;;3.70;;
1839;SDS011;920;48.944;9.148;2024-03-02T10:54:01;4.27;;;3.57;;
1839;SDS011;920;48.944;9.148;2024-03-02T10:56:29;5.30;;;3.63;;
1839;SDS011;920;48.944;9.148;2024-03-02T10:59:01;3.63;;;2.90;;
1839;SDS011;920;48.944;9.148;2024-03-02T11:01:29;4.73;;;3.83;;
1839;SDS011;920;48.944;9.148;2024-03-02T11:03:58;3.83;;;3.27;;
1839;SDS011;920;48.944;9.148;2024-03-02T11:06:25;4.80;;;3.70;;
1839;SDS011;920;48.944;9.148;2024-03-02T11:08:54;5.20;;;3.70;;
1839;SDS011;920;48.944;9.148;2024-03-02T11:11:26;4.20;;;3.60;;
1839;SDS011;920;48.944;9.148;2024-03-02T11:13:55;9.27;;;4.70;;
1839;SDS011;920;48.944;9.148;2024-03-02T11:16:26;5.80;;;4.30;;
1839;SDS011;920;48.944;9.148;2024-03-02T11:19:00;4.63;;;3.80;;
1839;SDS011;920;48.944;9.148;2024-03-02T11:21:28;4.87;;;3.20;;
1839;SDS011;920;48.944;9.148;2024-03-02T11:23:59;4.40;;;3.63;;
1839;SDS011;920;48.944;9.148;2024-03-02T11:26:27;4.27;;;3.37;;
1839;SDS011;920;48.944;9.148;2024-03-02T11:28:54;5.00;;;3.70;;
1839;SDS011;920;48.944;9.148;2024-03-02T11:31:22;4.80;;;3.30;;
1839;SDS011;920;48.944;9.148;2024-03-02T11:33:48;4.10;;;3.33;;
1839;SDS011;920;48.944;9.148;2024-03-02T11:36:15;4.40;;;3.70;;
1839;SDS011;920;48.944;9.148;2024-03-02T11:38:43;4.20;;;3.30;;
1839;SDS011;920;48.944;9.148;2024-03-02T11:41:12;4.60;;;3.03;;
1839;SDS011;920;48.944;9.148;2024-03-02T11:43:39;3.40;;;2.63;;
1839;SDS011;920;48.944;9.148;2024-03-02T11:46:06;4.40;;;2.70;;
1839;SDS011;920;48.944;9.148;2024-03-02T11:48:34;3.30;;;2.67;;
1839;SDS011;920;48.944;9.148;2024-03-02T11:51:01;3.57;;;2.80;;
1839;SDS011;920;48.944;9.148;2024-03-02T11:53:28;3.30;;;2.60;;
1839;SDS011;920;48.944;9.148;2024-03-02T11:55:57;4.93;;;2.50;;
1839;SDS011;920;48.944;9.148;2024-03-02T11:58:28;3.93;;;2.17;;
1839;SDS011;920;48.944;9.148;2024-03-02T12:00:54;3.03;;;2.10;;
1839;SDS011;920;48.944;9.148;2024-03-02T12:03:22;2.70;;;1.80;;
1839;SDS011;920;48.944;9.148;2024-03-02T12:05:50;3.10;;;2.00;;
1839;SDS011;920;48.944;9.148;2024-03-02T12:08:18;2.93;;;1.80;;
1839;SDS011;920;48.944;9.148;2024-03-02T12:10:55;2.90;;;2.17;;
1839;SDS011;920;48.944;9.148;2024-03-02T12:13:22;2.80;;;1.83;;
1839;SDS011;920;48.944;9.148;2024-03-02T12:15:52;3.23;;;2.23;;
1839;SDS011;920;48.944;9.148;2024-03-02T12:18:19;2.63;;;1.80;;
1839;SDS011;920;48.944;9.148;2024-03-02T12:20:46;2.47;;;1.80;;
1839;SDS011;920;48.944;9.148;2024-03-02T12:23:15;3.00;;;1.90;;
1839;SDS011;920;48.944;9.148;2024-03-02T12:25:42;3.17;;;2.30;;
1839;SDS011;920;48.944;9.148;2024-03-02T12:28:09;3.10;;;1.80;;
1839;SDS011;920;48.944;9.148;2024-03-02T12:30:36;2.73;;;1.60;;
1839;SDS011;920;48.944;9.148;2024-03-02T12:33:04;2.70;;;1.73;;
1839;SDS011;920;48.944;9.148;2024-03-02T12:35:31;2.70;;;1.90;;
1839;SDS011;920;48.944;9.148;2024-03-02T12:37:58;2.70;;;1.80;;
1839;SDS011;920;48.944;9.148;2024-03-02T12:40:25;3.03;;;1.97;;
1839;SDS011;920;48.944;9.148;2024-03-02T12:42:52;2.43;;;1.70;;
1839;SDS011;920;48.944;9.148;2024-03-02T12:45:19;3.07;;;1.97;;
1839;SDS011;920;48.944;9.148;2024-03-02T12:47:48;2.60;;;1.60;;
1839;SDS011;920;48.944;9.148;2024-03-02T12:50:18;2.30;;;1.50;;
1839;SDS011;920;48.944;9.148;2024-03-02T12:52:50;2.37;;;1.40;;
1839;SDS011;920;48.944;9.148;2024-03-02T12:55:18;2.63;;;1.40;;
1839;SDS011;920;48.944;9.148;2024-03-02T12:57:45;2.33;;;1.70;;
1839;SDS011;920;48.944;9.148;2024-03-02T13:00:12;2.77;;;1.20;;
1839;SDS011;920;48.944;9.148;2024-03-02T13:02:39;2.53;;;1.50;;
1839;SDS011;920;48.944;9.148;2024-03-02T13:05:06;2.30;;;1.47;;
1839;SDS011;920;48.944;9.148;2024-03-02T13:07:37;2.43;;;1.23;;
1839;SDS011;920;48.944;9.148;2024-03-02T13:10:04;2.30;;;1.27;;
1839;SDS011;920;48.944;9.148;2024-03-02T13:12:32;2.10;;;1.10;;
1839;SDS011;920;48.944;9.148;2024-03-02T13:14:59;1.90;;;1.00;;
1839;SDS011;920;48.944;9.148;2024-03-02T13:17:27;2.73;;;1.10;;
1839;SDS011;920;48.944;9.148;2024-03-02T13:19:54;1.80;;;0.90;;
1839;SDS011;920;48.944;9.148;2024-03-02T13:22:22;1.80;;;1.00;;
1839;SDS011;920;48.944;9.148;2024-03-02T13:24:50;3.33;;;1.20;;
1839;SDS011;920;48.944;9.148;2024-03-02T13:27:17;2.57;;;1.80;;
1839;SDS011;920;48.944;9.148;2024-03-02T13:29:45;3.57;;;2.00;;
1839;SDS011;920;48.944;9.148;2024-03-02T13:32:13;2.27;;;1.27;;
1839;SDS011;920;48.944;9.148;2024-03-02T13:34:39;2.20;;;1.23;;
1839;SDS011;920;48.944;9.148;2024-03-02T13:37:06;2.10;;;1.23;;
1839;SDS011;920;48.944;9.148;2024-03-02T13:39:33;2.03;;;1.13;;
1839;SDS011;920;48.944;9.148;2024-03-02T13:42:06;1.90;;;1.00;;
1839;SDS011;920;48.944;9.148;2024-03-02T13:44:33;2.40;;;1.33;;
1839;SDS011;920;48.944;9.148;2024-03-02T13:47:00;2.33;;;1.20;;
1839;SDS011;920;48.944;9.148;2024-03-02T13:49:27;2.10;;;1.00;;
1839;SDS011;920;48.944;9.148;2024-03-02T13:51:58;1.80;;;1.00;;
1839;SDS011;920;48.944;9.148;2024-03-02T13:54:28;2.40;;;1.17;;
1839;SDS011;920;48.944;9.148;2024-03-02T13:56:55;2.13;;;1.20;;
1839;SDS011;920;48.944;9.148;2024-03-02T13:59:25;1.80;;;1.00;;
1839;SDS011;920;48.944;9.148;2024-03-02T14:01:52;1.83;;;1.10;;
1839;SDS011;920;48.944;9.148;2024-03-02T14:04:19;2.30;;;1.00;;
1839;SDS011;920;48.944;9.148;2024-03-02T14:06:45;3.03;;;1.20;;
1839;SDS011;920;48.944;9.148;2024-03-02T14:09:13;2.30;;;1.17;;
1839;SDS011;920;48.944;9.148;2024-03-02T14:11:39;2.30;;;1.20;;
1839;SDS011;920;48.944;9.148;2024-03-02T14:14:06;2.10;;;1.30;;
1839;SDS011;920;48.944;9.148;2024-03-02T14:16:35;2.07;;;1.23;;
1839;SDS011;920;48.944;9.148;2024-03-02T14:19:02;2.50;;;1.23;;
1839;SDS011;920;48.944;9.148;2024-03-02T14:21:29;2.07;;;1.20;;
1839;SDS011;920;48.944;9.148;2024-03-02T14:23:58;3.57;;;1.37;;
1839;SDS011;920;48.944;9.148;2024-03-02T14:26:24;5.43;;;1.27;;
1839;SDS011;920;48.944;9.148;2024-03-02T14:28:52;2.37;;;1.10;;
1839;SDS011;920;48.944;9.148;2024-03-02T14:31:19;2.20;;;1.23;;
1839;SDS011;920;48.944;9.148;2024-03-02T14:33:50;2.20;;;1.40;;
1839;SDS011;920;48.944;9.148;2024-03-02T14:36:18;2.30;;;1.30;;
1839;SDS011;920;48.944;9.148;2024-03-02T14:38:45;2.20;;;1.20;;
1839;SDS011;920;48.944;9.148;2024-03-02T14:41:11;2.00;;;1.10;;
1839;SDS011;920;48.944;9.148;2024-03-02T14:43:38;2.20;;;1.20;;
1839;SDS011;920;48.944;9.148;2024-03-02T14:46:05;3.80;;;1.30;;
1839;SDS011;920;48.944;9.148;2024-03-02T14:48:33;2.20;;;1.33;;
1839;SDS011;920;48.944;9.148;2024-03-02T14:51:01;2.07;;;1.10;;
1839;SDS011;920;48.944;9.148;2024-03-02T14:53:28;2.00;;;1.10;;
1839;SDS011;920;48.944;9.148;2024-03-02T14:55:55;2.67;;;1.40;;
1839;SDS011;920;48.944;9.148;2024-03-02T14:58:23;2.10;;;1.30;;
1839;SDS011;920;48.944;9.148;2024-03-02T15:00:51;2.40;;;1.37;;
1839;SDS011;920;48.944;9.148;2024-03-02T15:03:17;2.37;;;1.57;;
1839;SDS011;920;48.944;9.148;2024-03-02T15:05:44;2.50;;;1.50;;
1839;SDS011;920;48.944;9.148;2024-03-02T15:08:13;1.90;;;1.10;;
1839;SDS011;920;48.944;9.148;2024-03-02T15:10:39;2.13;;;1.43;;
1839;SDS011;920;48.944;9.148;2024-03-02T15:13:06;2.23;;;1.50;;
1839;SDS011;920;48.944;9.148;2024-03-02T15:15:33;2.20;;;1.30;;
1839;SDS011;920;48.944;9.148;2024-03-02T15:17:59;1.87;;;1.00;;
1839;SDS011;920;48.944;9.148;2024-03-02T15:20:26;2.00;;;1.10;;